createdAt,value
2019-03-19T00:01:03.656Z,88.83
2019-03-19T00:03:29.901Z,88.65
2019-03-19T00:05:56.148Z,89.08
2019-03-19T00:08:22.394Z,89.34
2019-03-19T00:10:48.621Z,88.65
2019-03-19T00:13:14.874Z,89.34
2019-03-19T00:15:41.112Z,89.48
2019-03-19T00:18:07.349Z,89.58
2019-03-19T00:20:33.576Z,89.33
2019-03-19T00:22:59.813Z,88.68
2019-03-19T00:25:30.438Z,88.07
2019-03-19T00:27:54.205Z,88.32
2019-03-19T00:30:20.435Z,89.54
2019-03-19T00:32:46.684Z,89.04
2019-03-19T00:35:12.925Z,89.76
2019-03-19T00:37:39.163Z,89.42
2019-03-19T00:43:01.845Z,89.21
2019-03-19T00:45:28.071Z,88.55
2019-03-19T00:47:54.296Z,89.43
2019-03-19T00:50:20.537Z,88.22
2019-03-19T00:52:46.777Z,89.86
2019-03-19T00:55:13.240Z,90.25
2019-03-19T00:57:39.471Z,90.43
2019-03-19T01:00:25.476Z,89.78
2019-03-19T01:02:51.744Z,90.17
2019-03-19T01:05:18.084Z,88.82
2019-03-19T01:07:44.320Z,89.73
2019-03-19T01:10:51.860Z,89.65
2019-03-19T01:13:18.105Z,90.75
2019-03-19T01:15:44.360Z,91.04
2019-03-19T01:18:10.593Z,90.13
2019-03-19T01:20:36.826Z,89.70
2019-03-19T01:23:03.053Z,89.66
2019-03-19T01:25:29.316Z,88.19
2019-03-19T01:27:55.550Z,88.62
2019-03-19T01:30:21.789Z,89.09
2019-03-19T01:32:48.010Z,89.05
2019-03-19T01:35:14.266Z,89.28
2019-03-19T01:37:40.498Z,88.66
2019-03-19T01:40:26.498Z,89.56
2019-03-19T01:42:52.733Z,87.89
2019-03-19T01:45:18.981Z,87.45
2019-03-19T01:47:45.226Z,88.47
2019-03-19T01:50:52.780Z,88.58
2019-03-19T01:53:19.031Z,88.28
2019-03-19T01:55:45.329Z,88.79
2019-03-19T01:58:11.569Z,87.67
2019-03-19T02:00:37.795Z,88.45
2019-03-19T02:03:04.054Z,89.03
2019-03-19T02:05:30.291Z,87.92
2019-03-19T02:07:56.525Z,87.68
2019-03-19T02:10:22.773Z,88.59
2019-03-19T02:12:49.001Z,88.55
2019-03-19T02:18:16.156Z,87.99
2019-03-19T02:20:42.403Z,87.95
2019-03-19T02:23:08.645Z,88.66
2019-03-19T02:25:34.892Z,88.88
2019-03-19T02:28:01.117Z,89.88
2019-03-19T02:30:27.347Z,89.39
2019-03-19T02:32:53.589Z,89.59
2019-03-19T02:35:19.824Z,89.70
2019-03-19T02:37:46.069Z,90.10
2019-03-19T02:40:53.625Z,89.52
2019-03-19T02:43:22.640Z,90.01
2019-03-19T02:45:47.986Z,88.37
2019-03-19T02:48:14.228Z,88.76
2019-03-19T02:50:40.456Z,87.90
2019-03-19T02:53:06.700Z,87.15
2019-03-19T02:55:32.935Z,87.64
2019-03-19T02:57:59.206Z,87.78
2019-03-19T03:00:25.439Z,88.79
2019-03-19T03:02:51.680Z,88.43
2019-03-19T03:08:32.050Z,89.20
2019-03-19T03:10:58.268Z,88.90
2019-03-19T03:13:24.513Z,89.40
2019-03-19T03:15:50.754Z,89.70
2019-03-19T03:18:16.994Z,89.67
2019-03-19T03:20:43.226Z,89.92
2019-03-19T03:23:09.472Z,90.33
2019-03-19T03:25:35.715Z,90.10
2019-03-19T03:28:01.946Z,89.93
2019-03-19T03:30:28.205Z,90.33
2019-03-19T03:32:54.421Z,89.05
2019-03-19T03:35:20.654Z,89.71
2019-03-19T03:37:46.886Z,88.36
2019-03-19T03:40:32.878Z,89.16
2019-03-19T03:42:59.109Z,88.06
2019-03-19T03:45:25.353Z,89.23
2019-03-19T03:47:51.572Z,89.29
2019-03-19T03:50:59.121Z,89.54
2019-03-19T03:53:25.351Z,88.69
2019-03-19T03:55:51.620Z,89.26
2019-03-19T03:58:17.862Z,90.26
2019-03-19T04:00:44.101Z,90.29
2019-03-19T04:03:10.326Z,90.35
2019-03-19T04:05:36.576Z,90.51
2019-03-19T04:10:56.547Z,90.48
2019-03-19T04:13:22.777Z,90.43
2019-03-19T04:15:49.000Z,90.39
2019-03-19T04:18:15.258Z,90.34
2019-03-19T04:20:41.512Z,90.17
2019-03-19T04:23:07.749Z,88.91
2019-03-19T04:25:33.970Z,90.48
2019-03-19T04:28:00.206Z,90.57
2019-03-19T04:30:26.453Z,90.06
2019-03-19T04:32:52.697Z,88.86
2019-03-19T04:35:18.988Z,89.65
2019-03-19T04:37:45.216Z,89.48
2019-03-19T04:40:31.225Z,88.18
2019-03-19T04:42:57.464Z,88.20
2019-03-19T04:45:23.744Z,89.75
2019-03-19T04:47:49.971Z,88.57
2019-03-19T04:50:16.224Z,88.63
2019-03-19T04:52:42.762Z,88.12
2019-03-19T04:58:22.408Z,89.64
2019-03-19T05:00:48.643Z,89.64
2019-03-19T05:03:14.915Z,89.22
2019-03-19T05:05:41.156Z,89.21
2019-03-19T05:08:07.397Z,88.32
2019-03-19T05:10:33.626Z,88.15
2019-03-19T05:13:00.875Z,87.58
2019-03-19T05:15:28.030Z,87.97
2019-03-19T05:17:54.318Z,87.19
2019-03-19T05:20:20.496Z,88.19
2019-03-19T05:22:46.734Z,87.84
2019-03-19T05:25:12.964Z,87.07
2019-03-19T05:27:39.213Z,87.36
2019-03-19T05:30:46.784Z,86.42
2019-03-19T05:33:13.026Z,86.96
2019-03-19T05:35:39.299Z,86.59
2019-03-19T05:38:25.302Z,86.65
2019-03-19T05:40:51.575Z,85.92
2019-03-19T05:43:17.811Z,86.05
2019-03-19T05:45:44.058Z,86.57
2019-03-19T05:48:10.325Z,86.21
2019-03-19T05:50:36.549Z,86.24
2019-03-19T05:53:02.802Z,85.32
2019-03-19T05:55:29.039Z,84.79
2019-03-19T05:57:55.303Z,84.00
2019-03-19T06:03:09.168Z,82.49
2019-03-19T06:05:35.383Z,81.89
2019-03-19T06:08:01.620Z,82.50
2019-03-19T06:10:27.862Z,82.87
2019-03-19T06:12:54.113Z,83.64
2019-03-19T06:15:20.349Z,82.96
2019-03-19T06:17:46.594Z,84.26
2019-03-19T06:20:54.144Z,81.64
2019-03-19T06:23:20.402Z,80.97
2019-03-19T06:25:46.629Z,83.00
2019-03-19T06:28:12.858Z,81.69
2019-03-19T06:30:39.125Z,80.22
2019-03-19T06:33:05.372Z,81.69
2019-03-19T06:35:31.623Z,80.02
2019-03-19T06:37:57.865Z,79.62
2019-03-19T06:40:24.111Z,76.20
2019-03-19T06:42:50.348Z,77.41
2019-03-19T06:45:57.895Z,77.24
2019-03-19T06:48:24.149Z,76.64
2019-03-19T06:50:50.387Z,76.09
2019-03-19T06:53:16.629Z,75.19
2019-03-19T06:56:02.801Z,74.32
2019-03-19T06:58:29.507Z,74.46
2019-03-19T07:00:55.764Z,74.65
2019-03-19T07:03:22.015Z,72.90
2019-03-19T07:05:48.259Z,74.27
2019-03-19T07:08:14.494Z,72.20
2019-03-19T07:10:40.736Z,71.16
2019-03-19T07:13:06.965Z,75.19
2019-03-19T07:15:33.208Z,76.06
2019-03-19T07:17:59.436Z,70.22
2019-03-19T07:21:06.984Z,71.90
2019-03-19T07:23:33.230Z,71.65
2019-03-19T07:25:59.480Z,69.84
2019-03-19T07:28:25.724Z,72.60
2019-03-19T07:30:51.958Z,71.32
2019-03-19T07:33:18.176Z,72.66
2019-03-19T07:35:44.411Z,72.33
2019-03-19T07:38:10.652Z,68.43
2019-03-19T07:40:36.902Z,71.45
2019-03-19T07:43:03.130Z,73.45
2019-03-19T07:45:29.383Z,71.70
2019-03-19T07:47:55.605Z,71.45
2019-03-19T07:51:03.159Z,70.73
2019-03-19T07:53:29.391Z,72.29
2019-03-19T07:55:55.645Z,70.46
2019-03-19T07:58:32.751Z,71.07
2019-03-19T08:00:50.027Z,70.03
2019-03-19T08:03:16.687Z,70.63
2019-03-19T08:05:44.386Z,67.71
2019-03-19T08:08:10.619Z,72.31
2019-03-19T08:10:36.855Z,68.02
2019-03-19T08:13:03.088Z,71.39
2019-03-19T08:15:29.312Z,66.75
2019-03-19T08:17:55.553Z,68.95
2019-03-19T08:20:21.778Z,68.63
2019-03-19T08:22:48.034Z,65.95
2019-03-19T08:28:28.189Z,66.30
2019-03-19T08:30:54.421Z,64.96
2019-03-19T08:33:20.659Z,66.69
2019-03-19T08:35:46.892Z,67.65
2019-03-19T08:38:13.143Z,62.94
2019-03-19T08:40:39.376Z,63.85
2019-03-19T08:43:05.623Z,64.80
2019-03-19T08:45:31.856Z,63.03
2019-03-19T08:47:58.097Z,63.41
2019-03-19T08:50:24.436Z,67.04
2019-03-19T08:52:50.685Z,63.53
2019-03-19T08:55:17.020Z,63.53
2019-03-19T08:57:43.265Z,64.37
2019-03-19T09:03:10.460Z,66.19
2019-03-19T09:05:36.696Z,65.18
2019-03-19T09:08:02.944Z,63.96
2019-03-19T09:10:29.184Z,64.82
2019-03-19T09:12:55.430Z,62.88
2019-03-19T09:16:02.970Z,64.25
2019-03-19T09:18:29.249Z,66.35
2019-03-19T09:20:55.492Z,65.58
2019-03-19T09:23:21.737Z,67.68
2019-03-19T09:25:47.979Z,66.20
2019-03-19T09:28:14.243Z,67.68
2019-03-19T09:30:40.494Z,66.83
2019-03-19T09:33:06.773Z,71.12
2019-03-19T09:35:33.006Z,68.90
2019-03-19T09:37:59.396Z,67.69
2019-03-19T09:40:25.691Z,67.90
2019-03-19T09:42:51.935Z,68.54
2019-03-19T09:45:18.283Z,69.18
2019-03-19T09:50:58.101Z,67.27
2019-03-19T09:53:24.347Z,66.55
2019-03-19T09:55:50.593Z,67.21
2019-03-19T09:58:16.846Z,67.67
2019-03-19T10:00:43.150Z,68.40
2019-03-19T10:03:09.432Z,69.67
2019-03-19T10:05:35.681Z,68.95
2019-03-19T10:08:01.917Z,67.82
2019-03-19T10:10:28.212Z,66.57
2019-03-19T10:12:54.513Z,69.57
2019-03-19T10:15:20.796Z,69.36
2019-03-19T10:17:47.035Z,69.08
2019-03-19T10:23:07.404Z,67.65
2019-03-19T10:25:33.674Z,67.90
2019-03-19T10:27:59.916Z,66.74
2019-03-19T10:30:26.163Z,70.71
2019-03-19T10:32:52.463Z,68.37
2019-03-19T10:35:18.751Z,68.95
2019-03-19T10:37:44.981Z,67.63
2019-03-19T10:40:52.540Z,70.82
2019-03-19T10:43:18.791Z,70.45
2019-03-19T10:45:45.046Z,68.66
2019-03-19T10:48:11.291Z,69.96
2019-03-19T10:50:37.545Z,66.60
2019-03-19T10:53:03.873Z,67.34
2019-03-19T10:55:30.127Z,67.26
2019-03-19T10:57:56.388Z,68.17
2019-03-19T11:01:03.950Z,69.99
2019-03-19T11:03:30.195Z,67.50
2019-03-19T11:05:56.465Z,70.29
2019-03-19T11:08:22.687Z,70.52
2019-03-19T11:10:48.937Z,67.64
2019-03-19T11:13:15.198Z,69.01
2019-03-19T11:15:41.441Z,69.12
2019-03-19T11:18:07.689Z,69.06
2019-03-19T11:20:33.921Z,69.97
2019-03-19T11:23:00.172Z,69.25
2019-03-19T11:25:54.164Z,70.36
2019-03-19T11:28:14.329Z,68.82
2019-03-19T11:30:40.571Z,72.15
2019-03-19T11:33:06.831Z,69.33
2019-03-19T11:35:33.070Z,71.45
2019-03-19T11:37:59.316Z,70.93
2019-03-19T11:40:26.239Z,69.18
2019-03-19T11:43:35.011Z,71.17
2019-03-19T11:46:01.258Z,68.84
2019-03-19T11:48:27.499Z,69.10
2019-03-19T11:50:53.732Z,72.20
2019-03-19T11:53:19.985Z,71.62
2019-03-19T11:55:46.229Z,69.45
2019-03-19T11:58:12.472Z,69.40
2019-03-19T12:00:58.478Z,71.56
2019-03-19T12:03:24.729Z,67.97
2019-03-19T12:05:50.968Z,69.11
2019-03-19T12:08:17.225Z,71.83
2019-03-19T12:10:43.465Z,68.24
2019-03-19T12:13:09.712Z,71.91
2019-03-19T12:15:35.952Z,71.65
2019-03-19T12:18:02.190Z,68.57
2019-03-19T12:20:28.439Z,71.83
2019-03-19T12:22:54.665Z,68.94
2019-03-19T12:25:20.905Z,70.10
2019-03-19T12:27:47.137Z,72.84
2019-03-19T12:30:54.999Z,70.78
2019-03-19T12:33:21.318Z,71.02
2019-03-19T12:35:47.563Z,71.10
2019-03-19T12:38:13.789Z,72.45
2019-03-19T12:40:40.050Z,71.02
2019-03-19T12:43:06.287Z,73.34
2019-03-19T12:45:32.535Z,70.10
2019-03-19T12:47:58.769Z,71.10
2019-03-19T12:51:06.308Z,72.88
2019-03-19T12:53:32.549Z,73.39
2019-03-19T12:55:58.814Z,71.19
2019-03-19T12:58:25.018Z,73.77
2019-03-19T13:00:51.283Z,71.58
2019-03-19T13:03:17.511Z,72.45
2019-03-19T13:05:43.817Z,72.46
2019-03-19T13:08:10.069Z,75.38
2019-03-19T13:10:36.303Z,72.22
2019-03-19T13:13:02.537Z,72.45
2019-03-19T13:15:28.772Z,72.60
2019-03-19T13:17:55.008Z,70.80
2019-03-19T13:21:02.549Z,72.75
2019-03-19T13:23:28.800Z,73.67
2019-03-19T13:25:56.786Z,72.51
2019-03-19T13:28:23.183Z,73.05
2019-03-19T13:30:49.463Z,74.11
2019-03-19T13:33:15.667Z,73.05
2019-03-19T13:35:41.914Z,73.31
2019-03-19T13:38:08.160Z,72.47
2019-03-19T13:40:34.402Z,75.32
2019-03-19T13:43:00.650Z,74.36
2019-03-19T13:45:26.883Z,75.54
2019-03-19T13:47:53.120Z,75.62
2019-03-19T13:53:26.909Z,76.39
2019-03-19T13:55:53.140Z,76.47
2019-03-19T13:59:00.691Z,74.98
2019-03-19T14:01:26.957Z,75.48
2019-03-19T14:03:53.193Z,73.90
2019-03-19T14:06:19.433Z,74.44
2019-03-19T14:08:45.656Z,74.51
2019-03-19T14:11:11.890Z,75.12
2019-03-19T14:13:38.132Z,75.50
2019-03-19T14:16:04.355Z,73.75
2019-03-19T14:18:30.599Z,75.42
2019-03-19T14:20:56.823Z,74.95
2019-03-19T14:23:23.064Z,76.10
2019-03-19T14:25:49.295Z,74.37
2019-03-19T14:28:15.543Z,75.24
2019-03-19T14:30:41.775Z,73.37
2019-03-19T14:33:08.019Z,74.79
2019-03-19T14:35:37.489Z,73.96
2019-03-19T14:40:36.877Z,75.95
2019-03-19T14:43:03.238Z,74.75
2019-03-19T14:45:29.479Z,74.30
2019-03-19T14:47:55.721Z,74.32
2019-03-19T14:50:41.717Z,75.43
2019-03-19T14:53:07.968Z,74.93
2019-03-19T14:55:34.201Z,74.81
2019-03-19T14:58:00.449Z,76.72
2019-03-19T15:00:26.700Z,75.20
2019-03-19T15:02:52.930Z,75.69
2019-03-19T15:05:19.177Z,75.92
2019-03-19T15:07:45.403Z,77.76
2019-03-19T15:10:31.394Z,76.17
2019-03-19T15:15:58.757Z,76.27
2019-03-19T15:18:25.004Z,77.45
2019-03-19T15:20:53.006Z,75.14
2019-03-19T15:23:19.390Z,77.20
2019-03-19T15:25:45.633Z,77.00
2019-03-19T15:28:11.863Z,76.17
2019-03-19T15:30:38.119Z,75.64
2019-03-19T15:33:04.351Z,75.08
2019-03-19T15:35:30.642Z,73.96
2019-03-19T15:37:56.853Z,74.63
2019-03-19T15:40:23.096Z,75.61
2019-03-19T15:42:49.332Z,74.62
2019-03-19T15:45:56.877Z,73.34
2019-03-19T15:48:23.116Z,73.74
2019-03-19T15:50:49.373Z,70.26
2019-03-19T15:53:15.599Z,71.63
2019-03-19T15:55:41.856Z,72.20
2019-03-19T15:58:08.090Z,73.92
2019-03-19T16:00:34.351Z,73.47
2019-03-19T16:03:00.596Z,73.08
2019-03-19T16:05:26.834Z,73.86
2019-03-19T16:07:53.069Z,71.89
2019-03-19T16:10:19.314Z,73.23
2019-03-19T16:12:45.540Z,74.01
2019-03-19T16:15:31.537Z,75.03
2019-03-19T16:17:57.773Z,72.77
2019-03-19T16:20:24.033Z,73.75
2019-03-19T16:22:50.267Z,74.10
2019-03-19T16:25:16.510Z,75.58
2019-03-19T16:27:42.745Z,76.87
2019-03-19T16:30:50.335Z,78.12
2019-03-19T16:33:17.523Z,77.81
2019-03-19T16:35:43.776Z,79.03
2019-03-19T16:38:10.009Z,79.13
2019-03-19T16:40:36.256Z,78.96
2019-03-19T16:43:02.587Z,79.19
2019-03-19T16:45:28.817Z,79.83
2019-03-19T16:47:55.063Z,80.55
2019-03-19T16:51:02.639Z,80.88
2019-03-19T16:53:28.893Z,81.23
2019-03-19T16:55:55.128Z,81.37
2019-03-19T16:58:21.364Z,81.44
2019-03-19T17:00:47.612Z,81.29
2019-03-19T17:03:13.864Z,81.93
2019-03-19T17:05:40.093Z,82.21
2019-03-19T17:08:06.328Z,82.58
2019-03-19T17:10:32.563Z,82.38
2019-03-19T17:12:58.806Z,82.64
2019-03-19T17:15:25.029Z,83.15
2019-03-19T17:17:51.271Z,83.59
2019-03-19T17:20:39.073Z,83.32
2019-03-19T17:23:05.351Z,83.34
2019-03-19T17:25:31.679Z,83.19
2019-03-19T17:27:57.918Z,83.38
2019-03-19T17:31:05.467Z,83.87
2019-03-19T17:33:31.723Z,84.17
2019-03-19T17:35:57.962Z,83.94
2019-03-19T17:38:24.243Z,84.29
2019-03-19T17:40:50.477Z,84.54
2019-03-19T17:43:16.713Z,84.50
2019-03-19T17:45:42.948Z,84.26
2019-03-19T17:48:16.235Z,84.58
2019-03-19T17:50:57.088Z,85.01
2019-03-19T17:53:23.339Z,85.20
2019-03-19T17:55:49.568Z,86.15
2019-03-19T17:58:15.810Z,86.47
2019-03-19T18:03:29.681Z,86.64
2019-03-19T18:05:55.910Z,86.74
2019-03-19T18:08:22.169Z,86.54
2019-03-19T18:10:48.393Z,86.89
2019-03-19T18:13:14.640Z,86.96
2019-03-19T18:15:40.871Z,86.78
2019-03-19T18:18:07.097Z,87.10
2019-03-19T18:20:33.337Z,87.22
2019-03-19T18:22:59.567Z,87.58
2019-03-19T18:25:25.835Z,87.78
2019-03-19T18:27:52.061Z,86.80
2019-03-19T18:30:59.621Z,86.47
2019-03-19T18:33:25.880Z,86.35
2019-03-19T18:35:55.128Z,86.70
2019-03-19T18:38:20.297Z,87.10
2019-03-19T18:40:46.558Z,87.43
2019-03-19T18:43:12.833Z,87.60
2019-03-19T18:45:39.077Z,88.67
2019-03-19T18:48:05.314Z,88.28
2019-03-19T18:50:31.569Z,88.04
2019-03-19T18:52:57.813Z,87.64
2019-03-19T18:55:24.054Z,87.91
2019-03-19T18:57:50.301Z,88.40
2019-03-19T19:00:57.864Z,88.19
2019-03-19T19:03:24.096Z,88.23
2019-03-19T19:05:50.346Z,88.61
2019-03-19T19:08:16.609Z,89.01
2019-03-19T19:10:42.864Z,88.50
2019-03-19T19:13:09.084Z,88.34
2019-03-19T19:15:35.329Z,87.65
2019-03-19T19:18:01.565Z,88.19
2019-03-19T19:20:27.821Z,88.66
2019-03-19T19:22:54.069Z,88.33
2019-03-19T19:26:01.627Z,89.29
2019-03-19T19:28:27.867Z,89.05
2019-03-19T19:30:54.126Z,87.76
2019-03-19T19:33:20.382Z,88.85
2019-03-19T19:35:46.730Z,89.06
2019-03-19T19:38:12.967Z,88.95
2019-03-19T19:40:39.217Z,89.50
2019-03-19T19:43:05.452Z,89.71
2019-03-19T19:45:31.682Z,89.80
2019-03-19T19:47:57.923Z,89.09
2019-03-19T19:50:24.151Z,88.16
2019-03-19T19:52:50.391Z,88.94
2019-03-19T19:58:17.770Z,89.36
2019-03-19T20:00:44.105Z,89.88
2019-03-19T20:03:12.517Z,89.00
2019-03-19T20:05:38.504Z,88.54
2019-03-19T20:08:04.761Z,89.51
2019-03-19T20:10:31.030Z,87.96
2019-03-19T20:12:57.259Z,87.48
2019-03-19T20:15:23.500Z,88.21
2019-03-19T20:17:49.747Z,88.96
2019-03-19T20:20:57.285Z,88.82
2019-03-19T20:23:23.544Z,86.88
2019-03-19T20:25:49.782Z,88.52
2019-03-19T20:28:16.037Z,88.29
2019-03-19T20:30:42.284Z,87.92
2019-03-19T20:33:08.532Z,88.59
2019-03-19T20:35:34.776Z,89.03
2019-03-19T20:38:01.032Z,89.20
2019-03-19T20:40:27.292Z,87.66
2019-03-19T20:42:53.542Z,87.33
2019-03-19T20:45:39.788Z,88.17
2019-03-19T20:48:06.050Z,88.50
2019-03-19T20:50:52.346Z,89.21
2019-03-19T20:53:18.608Z,88.91
2019-03-19T20:55:44.868Z,88.48
2019-03-19T20:58:11.125Z,88.24
2019-03-19T21:00:37.394Z,88.10
2019-03-19T21:03:03.639Z,88.29
2019-03-19T21:05:29.877Z,86.99
2019-03-19T21:07:56.129Z,88.43
2019-03-19T21:13:35.897Z,87.56
2019-03-19T21:16:02.144Z,87.92
2019-03-19T21:18:28.422Z,87.36
2019-03-19T21:20:54.646Z,86.88
2019-03-19T21:23:20.892Z,88.22
2019-03-19T21:25:47.145Z,87.92
2019-03-19T21:28:14.568Z,87.23
2019-03-19T21:30:41.951Z,87.93
2019-03-19T21:33:08.192Z,87.13
2019-03-19T21:35:34.451Z,87.01
2019-03-19T21:38:00.702Z,88.09
2019-03-19T21:40:26.957Z,87.76
2019-03-19T21:42:53.195Z,88.06
2019-03-19T21:45:40.998Z,87.60
2019-03-19T21:48:07.235Z,87.27
2019-03-19T21:50:33.482Z,87.67
2019-03-19T21:52:59.729Z,87.29
2019-03-19T21:55:25.980Z,88.08
2019-03-19T21:57:52.219Z,87.42
2019-03-19T22:00:38.237Z,87.11
2019-03-19T22:03:04.486Z,87.35
2019-03-19T22:05:30.740Z,86.58
2019-03-19T22:07:56.993Z,86.89
2019-03-19T22:10:23.242Z,86.84
2019-03-19T22:12:49.863Z,86.72
2019-03-19T22:15:37.387Z,86.62
2019-03-19T22:18:23.381Z,86.61
2019-03-19T22:20:49.639Z,86.65
2019-03-19T22:23:15.869Z,85.68
2019-03-19T22:25:42.132Z,86.66
2019-03-19T22:28:08.372Z,86.43
2019-03-19T22:30:34.625Z,85.16
2019-03-19T22:33:00.864Z,86.42
2019-03-19T22:35:27.115Z,85.95
2019-03-19T22:37:53.388Z,86.90
2019-03-19T22:40:19.598Z,87.03
2019-03-19T22:42:45.854Z,86.60
2019-03-19T22:48:12.591Z,86.16
2019-03-19T22:50:38.830Z,85.96
2019-03-19T22:53:05.084Z,86.48
2019-03-19T22:55:31.316Z,86.46
2019-03-19T22:57:57.572Z,86.29
2019-03-19T23:00:43.574Z,86.48
2019-03-19T23:03:10.028Z,85.93
2019-03-19T23:05:36.266Z,85.65
2019-03-19T23:10:56.505Z,84.70
2019-03-19T23:13:22.752Z,85.41
2019-03-19T23:15:48.988Z,85.01
2019-03-19T23:20:49.222Z,84.61
2019-03-19T23:23:15.467Z,84.83
2019-03-19T23:25:41.699Z,84.51
2019-03-19T23:28:07.948Z,84.27
2019-03-19T23:30:34.180Z,85.04
2019-03-19T23:33:00.443Z,84.96
2019-03-19T23:35:26.687Z,84.62
2019-03-19T23:37:52.934Z,85.37
2019-03-19T23:43:32.697Z,85.72
2019-03-19T23:45:58.932Z,85.88
2019-03-19T23:48:25.183Z,84.92
2019-03-19T23:50:51.404Z,85.56
2019-03-19T23:53:17.643Z,85.49
2019-03-19T23:55:43.910Z,85.46
2019-03-19T23:58:10.160Z,86.25
